Time;durP1;ratioP1;P1;durP2;ratioP2;P2;SDS_P1;SDS_P2;PMS_P1;PMS_P2;Temp;Humidity;BMP_temperature;BMP_pressure;BME280_temperature;BME280_humidity;BME280_pressure;Samples;Min_cycle;Max_cycle;Signal;HPM_P1;HPM_P2
2022/10/06 00:00:00;;;;;;;1.20;1.10;;;;;;;;;;5095703;28;20201;-77
2022/10/06 00:02:28;;;;;;;2.90;1.40;;;;;;;;;;5096967;28;20679;-76
2022/10/06 00:04:58;;;;;;;0.60;0.60;;;;;;;;;;5095888;28;20310;-76
2022/10/06 00:07:27;;;;;;;2.00;1.03;;;;;;;;;;5096498;28;20643;-76
2022/10/06 00:09:55;;;;;;;1.63;1.20;;;;;;;;;;5096597;28;20241;-77
2022/10/06 00:12:23;;;;;;;3.50;2.53;;;;;;;;;;5096794;28;20708;-77
2022/10/06 00:14:52;;;;;;;2.50;2.07;;;;;;;;;;5092724;28;20729;-78
2022/10/06 00:17:20;;;;;;;1.63;0.70;;;;;;;;;;5075442;28;20203;-76
2022/10/06 00:19:49;;;;;;;2.37;0.90;;;;;;;;;;5075653;28;20237;-77
2022/10/06 00:22:19;;;;;;;0.97;0.60;;;;;;;;;;5075921;28;20734;-77
2022/10/06 00:24:47;;;;;;;1.60;0.60;;;;;;;;;;5075638;28;20238;-77
2022/10/06 00:27:16;;;;;;;0.50;0.50;;;;;;;;;;5075830;28;20625;-76
2022/10/06 00:29:44;;;;;;;1.17;0.67;;;;;;;;;;5075593;28;20646;-76
2022/10/06 00:32:13;;;;;;;2.67;0.97;;;;;;;;;;5081863;28;20260;-76
2022/10/06 00:34:42;;;;;;;2.83;0.70;;;;;;;;;;5095329;28;20265;-76
2022/10/06 00:37:11;;;;;;;1.17;0.70;;;;;;;;;;5095493;28;20637;-76
2022/10/06 00:39:41;;;;;;;2.40;0.80;;;;;;;;;;5095676;28;20659;-77
2022/10/06 00:42:21;;;;;;;0.77;0.70;;;;;;;;;;5095745;28;20227;-76
2022/10/06 00:44:49;;;;;;;1.93;1.03;;;;;;;;;;5095595;28;20312;-76
2022/10/06 00:47:18;;;;;;;1.77;0.80;;;;;;;;;;5082662;28;20241;-76
2022/10/06 00:49:46;;;;;;;1.77;0.90;;;;;;;;;;5074996;28;20257;-76
2022/10/06 00:52:17;;;;;;;0.83;0.70;;;;;;;;;;5075304;28;20292;-77
2022/10/06 00:54:47;;;;;;;0.73;0.60;;;;;;;;;;5075188;28;20222;-76
2022/10/06 00:57:15;;;;;;;2.57;0.87;;;;;;;;;;5075234;28;20206;-77
2022/10/06 00:59:44;;;;;;;0.60;0.60;;;;;;;;;;5074679;28;20237;-76
2022/10/06 01:02:16;;;;;;;0.87;0.60;;;;;;;;;;5084199;28;20237;-76
2022/10/06 01:04:46;;;;;;;1.10;0.60;;;;;;;;;;5094905;28;20245;-76
2022/10/06 01:07:15;;;;;;;2.00;0.63;;;;;;;;;;5095028;28;20202;-76
2022/10/06 01:09:44;;;;;;;1.37;0.83;;;;;;;;;;5095021;28;20202;-76
2022/10/06 01:12:14;;;;;;;1.37;0.50;;;;;;;;;;5094833;28;20626;-76
2022/10/06 01:14:43;;;;;;;2.23;0.60;;;;;;;;;;5094771;28;20260;-75
2022/10/06 01:17:15;;;;;;;1.13;0.80;;;;;;;;;;5083024;28;20203;-76
2022/10/06 01:19:48;;;;;;;1.57;0.47;;;;;;;;;;5094939;28;20252;-76
2022/10/06 01:22:18;;;;;;;1.80;0.77;;;;;;;;;;5094733;28;20237;-76
2022/10/06 01:24:51;;;;;;;1.27;0.47;;;;;;;;;;5086166;28;20253;-76
2022/10/06 01:27:20;;;;;;;3.40;0.77;;;;;;;;;;5074489;28;20190;-76
2022/10/06 01:29:51;;;;;;;1.33;0.60;;;;;;;;;;5080495;28;20292;-76
2022/10/06 01:32:19;;;;;;;0.60;0.50;;;;;;;;;;5093202;28;20245;-76
2022/10/06 01:34:48;;;;;;;1.13;0.70;;;;;;;;;;5095982;28;20243;-82
2022/10/06 01:37:17;;;;;;;1.00;0.57;;;;;;;;;;5095379;28;20604;-82
2022/10/06 01:39:45;;;;;;;3.50;0.80;;;;;;;;;;5094960;28;20209;-81
2022/10/06 01:42:16;;;;;;;3.20;0.97;;;;;;;;;;5094842;28;20198;-81
2022/10/06 01:44:44;;;;;;;1.23;0.80;;;;;;;;;;5094982;28;20249;-80
2022/10/06 01:47:13;;;;;;;1.87;0.80;;;;;;;;;;5094742;28;20722;-82
2022/10/06 01:49:41;;;;;;;2.00;0.90;;;;;;;;;;5095028;28;20197;-81
2022/10/06 01:52:10;;;;;;;2.50;0.93;;;;;;;;;;5094662;28;20253;-81
2022/10/06 01:54:39;;;;;;;2.07;0.80;;;;;;;;;;5093976;28;20257;-81
2022/10/06 01:57:08;;;;;;;2.10;0.90;;;;;;;;;;5094600;28;20631;-80
2022/10/06 01:59:38;;;;;;;3.40;1.10;;;;;;;;;;5094544;28;20202;-82
2022/10/06 02:02:06;;;;;;;3.17;1.00;;;;;;;;;;5094700;28;20718;-81
2022/10/06 02:04:35;;;;;;;4.40;1.17;;;;;;;;;;5093965;28;20221;-81
2022/10/06 02:07:04;;;;;;;2.67;1.30;;;;;;;;;;5094551;28;20257;-81
2022/10/06 02:09:32;;;;;;;3.73;1.30;;;;;;;;;;5094038;28;20267;-81
2022/10/06 02:12:01;;;;;;;4.23;1.30;;;;;;;;;;5094305;28;20629;-81
2022/10/06 02:14:30;;;;;;;3.60;1.17;;;;;;;;;;5093664;28;20218;-80
2022/10/06 02:17:00;;;;;;;5.13;1.70;;;;;;;;;;5093893;28;20297;-80
2022/10/06 02:19:28;;;;;;;4.73;1.40;;;;;;;;;;5094007;28;20269;-80
2022/10/06 02:21:58;;;;;;;5.27;1.40;;;;;;;;;;5092983;28;20197;-81
2022/10/06 02:24:27;;;;;;;5.60;1.30;;;;;;;;;;5093888;28;20753;-81
2022/10/06 02:26:55;;;;;;;4.47;1.47;;;;;;;;;;5093847;28;20629;-76
2022/10/06 02:29:24;;;;;;;5.63;1.50;;;;;;;;;;5087418;28;20292;-76
2022/10/06 02:31:53;;;;;;;3.83;1.50;;;;;;;;;;5093248;28;20260;-76
2022/10/06 02:34:23;;;;;;;3.33;1.40;;;;;;;;;;5093173;28;20265;-76
2022/10/06 02:36:52;;;;;;;5.03;1.83;;;;;;;;;;5093895;28;20284;-81
2022/10/06 02:39:21;;;;;;;4.43;1.40;;;;;;;;;;5093966;28;20229;-81
2022/10/06 02:41:49;;;;;;;5.53;1.77;;;;;;;;;;5093943;28;20241;-81
2022/10/06 02:44:18;;;;;;;7.27;1.70;;;;;;;;;;5094068;28;20747;-81
2022/10/06 02:46:46;;;;;;;4.67;1.47;;;;;;;;;;5093633;28;20225;-80
2022/10/06 02:49:15;;;;;;;6.50;1.93;;;;;;;;;;5093481;28;20202;-81
2022/10/06 02:51:45;;;;;;;2.87;1.40;;;;;;;;;;5093905;28;20226;-81
2022/10/06 02:54:14;;;;;;;5.50;1.80;;;;;;;;;;5093807;28;20714;-81
2022/10/06 02:56:42;;;;;;;4.63;1.50;;;;;;;;;;5093393;28;20289;-81
2022/10/06 02:59:11;;;;;;;4.93;1.43;;;;;;;;;;5093670;28;20293;-81
2022/10/06 03:01:39;;;;;;;6.00;1.73;;;;;;;;;;5093557;28;20213;-80
2022/10/06 03:04:10;;;;;;;5.17;1.90;;;;;;;;;;5093625;28;20223;-81
2022/10/06 03:06:38;;;;;;;5.63;1.70;;;;;;;;;;5093485;28;20281;-81
2022/10/06 03:09:09;;;;;;;6.33;1.70;;;;;;;;;;5093407;28;20229;-81
2022/10/06 03:11:38;;;;;;;5.93;1.70;;;;;;;;;;5093668;28;20307;-81
2022/10/06 03:14:07;;;;;;;5.00;1.70;;;;;;;;;;5093266;28;20321;-81
2022/10/06 03:16:37;;;;;;;6.53;1.60;;;;;;;;;;5093460;28;20209;-81
2022/10/06 03:19:06;;;;;;;5.10;1.70;;;;;;;;;;5093433;28;20219;-81
2022/10/06 03:21:36;;;;;;;6.63;1.70;;;;;;;;;;5093299;28;20719;-81
2022/10/06 03:24:05;;;;;;;5.70;1.53;;;;;;;;;;5093619;28;20218;-81
2022/10/06 03:26:35;;;;;;;5.20;1.93;;;;;;;;;;5093267;28;20245;-81
2022/10/06 03:29:04;;;;;;;5.33;1.77;;;;;;;;;;5093660;28;20238;-81
2022/10/06 03:31:38;;;;;;;6.10;1.90;;;;;;;;;;5093269;28;20193;-80
2022/10/06 03:34:07;;;;;;;7.00;2.00;;;;;;;;;;5096151;28;20294;-81
2022/10/06 03:36:36;;;;;;;6.77;2.00;;;;;;;;;;5097194;28;20284;-82
2022/10/06 03:39:06;;;;;;;8.53;2.10;;;;;;;;;;5097063;28;20624;-81
2022/10/06 03:41:36;;;;;;;4.97;1.80;;;;;;;;;;5096792;28;20296;-81
2022/10/06 03:44:05;;;;;;;5.93;1.97;;;;;;;;;;5097217;28;20764;-80
2022/10/06 03:46:34;;;;;;;6.60;2.03;;;;;;;;;;5096858;28;20258;-80
2022/10/06 03:49:04;;;;;;;6.07;2.10;;;;;;;;;;5097100;28;20201;-82
2022/10/06 03:51:33;;;;;;;7.87;2.00;;;;;;;;;;5096628;28;20201;-80
2022/10/06 03:54:02;;;;;;;5.03;1.87;;;;;;;;;;5096581;28;20222;-82
2022/10/06 03:56:31;;;;;;;5.53;1.87;;;;;;;;;;5096844;28;20205;-81
2022/10/06 03:59:02;;;;;;;10.67;1.97;;;;;;;;;;5096697;28;20244;-81
2022/10/06 04:01:31;;;;;;;5.40;1.63;;;;;;;;;;5096542;28;20233;-80
2022/10/06 04:04:01;;;;;;;8.47;1.93;;;;;;;;;;5096140;28;20224;-79
2022/10/06 04:06:30;;;;;;;8.13;2.10;;;;;;;;;;5096608;28;20259;-79
2022/10/06 04:08:59;;;;;;;5.90;2.07;;;;;;;;;;5096230;28;20206;-79
2022/10/06 04:11:28;;;;;;;6.87;2.10;;;;;;;;;;5096457;28;20243;-79
2022/10/06 04:13:58;;;;;;;12.90;2.37;;;;;;;;;;5096100;28;20316;-78
2022/10/06 04:16:29;;;;;;;11.00;2.30;;;;;;;;;;5092776;28;20202;-78
2022/10/06 04:18:59;;;;;;;9.07;1.90;;;;;;;;;;5085004;28;20284;-78
2022/10/06 04:21:29;;;;;;;10.23;2.10;;;;;;;;;;5079936;28;20293;-78
2022/10/06 04:23:58;;;;;;;8.70;2.07;;;;;;;;;;5075464;28;20305;-78
2022/10/06 04:26:27;;;;;;;9.47;2.20;;;;;;;;;;5089965;28;20600;-78
2022/10/06 04:28:56;;;;;;;8.23;2.40;;;;;;;;;;5075690;28;20616;-78
2022/10/06 04:31:25;;;;;;;7.77;2.10;;;;;;;;;;5075896;28;20229;-77
2022/10/06 04:33:56;;;;;;;10.37;1.97;;;;;;;;;;5074753;28;20222;-78
2022/10/06 04:36:25;;;;;;;8.17;2.10;;;;;;;;;;5075204;28;20187;-78
2022/10/06 04:38:57;;;;;;;10.87;2.00;;;;;;;;;;5075342;28;20246;-77
2022/10/06 04:41:27;;;;;;;8.83;2.00;;;;;;;;;;5095699;28;20206;-77
2022/10/06 04:43:55;;;;;;;9.07;2.43;;;;;;;;;;5094942;28;20309;-78
2022/10/06 04:46:24;;;;;;;8.33;2.03;;;;;;;;;;5087558;28;20205;-78
2022/10/06 04:49:13;;;;;;;8.30;2.10;;;;;;;;;;5077426;28;20198;-78
2022/10/06 04:51:48;;;;;;;6.90;1.97;;;;;;;;;;5075394;28;20242;-78
2022/10/06 04:54:17;;;;;;;5.33;2.20;;;;;;;;;;5074561;28;20226;-78
2022/10/06 04:56:45;;;;;;;11.43;2.10;;;;;;;;;;5074902;28;20202;-78
2022/10/06 04:59:14;;;;;;;9.23;1.80;;;;;;;;;;5078087;28;20217;-77
2022/10/06 05:01:42;;;;;;;8.63;2.10;;;;;;;;;;5088918;28;20241;-78
2022/10/06 05:04:12;;;;;;;8.27;1.93;;;;;;;;;;5074326;28;20221;-77
2022/10/06 05:06:41;;;;;;;6.40;1.83;;;;;;;;;;5074708;28;20254;-77
2022/10/06 05:09:11;;;;;;;8.07;2.03;;;;;;;;;;5075180;28;20722;-78
2022/10/06 05:11:40;;;;;;;8.47;2.07;;;;;;;;;;5074707;28;20252;-78
2022/10/06 05:14:08;;;;;;;7.90;2.23;;;;;;;;;;5074711;28;20714;-78
2022/10/06 05:16:37;;;;;;;8.40;1.70;;;;;;;;;;5074141;28;20252;-78
2022/10/06 05:19:07;;;;;;;8.97;2.07;;;;;;;;;;5086795;28;20206;-77
2022/10/06 05:21:37;;;;;;;9.40;2.23;;;;;;;;;;5094606;28;20206;-77
2022/10/06 05:24:05;;;;;;;9.17;1.93;;;;;;;;;;5094845;28;20754;-78
2022/10/06 05:26:35;;;;;;;7.80;1.87;;;;;;;;;;5089544;28;20216;-78
2022/10/06 05:29:04;;;;;;;10.47;2.17;;;;;;;;;;5094546;28;20210;-78
2022/10/06 05:31:33;;;;;;;8.03;2.00;;;;;;;;;;5095027;28;20707;-78
2022/10/06 05:34:02;;;;;;;5.60;1.80;;;;;;;;;;5077988;28;20230;-78
2022/10/06 05:36:32;;;;;;;7.70;2.03;;;;;;;;;;5086538;28;20236;-78
2022/10/06 05:39:03;;;;;;;9.10;2.10;;;;;;;;;;5094609;28;20740;-78
2022/10/06 05:41:33;;;;;;;6.77;2.23;;;;;;;;;;5074379;28;20206;-77
2022/10/06 05:44:02;;;;;;;7.67;1.90;;;;;;;;;;5073896;28;20249;-77
2022/10/06 05:46:31;;;;;;;7.23;1.90;;;;;;;;;;5074045;28;20233;-78
2022/10/06 05:49:00;;;;;;;7.40;2.33;;;;;;;;;;5074374;28;20202;-78
2022/10/06 05:51:30;;;;;;;7.23;1.90;;;;;;;;;;5074404;28;20690;-77
2022/10/06 05:53:59;;;;;;;6.03;2.03;;;;;;;;;;5078590;28;20686;-78
2022/10/06 05:56:29;;;;;;;6.83;2.00;;;;;;;;;;5093609;28;20234;-78
2022/10/06 05:58:59;;;;;;;9.20;2.33;;;;;;;;;;5094587;28;20234;-77
2022/10/06 06:01:28;;;;;;;8.20;2.20;;;;;;;;;;5094270;28;20320;-78
2022/10/06 06:03:59;;;;;;;8.40;2.43;;;;;;;;;;5082429;28;20687;-78
2022/10/06 06:06:28;;;;;;;6.40;1.90;;;;;;;;;;5073430;28;20191;-78
2022/10/06 06:08:57;;;;;;;6.53;2.10;;;;;;;;;;5075651;28;20281;-78
2022/10/06 06:11:26;;;;;;;10.53;2.27;;;;;;;;;;5091229;28;20240;-77
2022/10/06 06:13:58;;;;;;;6.37;2.07;;;;;;;;;;5093647;28;20272;-78
2022/10/06 06:16:26;;;;;;;10.07;2.27;;;;;;;;;;5090664;28;20253;-78
2022/10/06 06:18:54;;;;;;;9.30;2.27;;;;;;;;;;5088191;28;20197;-78
2022/10/06 06:21:23;;;;;;;6.73;1.97;;;;;;;;;;5090839;28;20202;-78
2022/10/06 06:23:52;;;;;;;8.93;2.07;;;;;;;;;;5074154;28;20245;-78
2022/10/06 06:26:22;;;;;;;7.53;1.73;;;;;;;;;;5073773;28;20210;-78
2022/10/06 06:28:51;;;;;;;7.37;2.23;;;;;;;;;;5073499;28;20230;-77
2022/10/06 06:31:22;;;;;;;8.07;1.97;;;;;;;;;;5073618;28;20724;-77
2022/10/06 06:33:52;;;;;;;6.37;2.07;;;;;;;;;;5079832;28;20262;-77
2022/10/06 06:36:21;;;;;;;8.30;1.83;;;;;;;;;;5073696;28;20234;-78
2022/10/06 06:38:51;;;;;;;6.50;1.83;;;;;;;;;;5073539;28;20248;-78
2022/10/06 06:41:20;;;;;;;7.57;2.00;;;;;;;;;;5073273;28;20297;-78
2022/10/06 06:43:49;;;;;;;9.87;2.37;;;;;;;;;;5073527;28;20222;-78
2022/10/06 06:46:18;;;;;;;8.53;2.30;;;;;;;;;;5082735;28;20300;-78
2022/10/06 06:48:48;;;;;;;8.67;1.80;;;;;;;;;;5073127;28;20206;-78
2022/10/06 06:51:18;;;;;;;8.27;2.10;;;;;;;;;;5073616;28;20206;-78
2022/10/06 06:53:46;;;;;;;7.40;1.90;;;;;;;;;;5073494;28;20253;-78
2022/10/06 06:56:15;;;;;;;6.87;1.93;;;;;;;;;;5073330;28;20241;-78
2022/10/06 06:58:46;;;;;;;8.67;2.43;;;;;;;;;;5073485;28;20214;-77
2022/10/06 07:01:16;;;;;;;7.70;2.13;;;;;;;;;;5091499;28;20241;-78
2022/10/06 07:03:45;;;;;;;9.00;2.07;;;;;;;;;;5093281;28;20228;-78
2022/10/06 07:06:31;;;;;;;7.43;2.00;;;;;;;;;;5093619;28;20255;-78
2022/10/06 07:09:00;;;;;;;9.40;2.23;;;;;;;;;;5097528;28;20237;-78
2022/10/06 07:11:30;;;;;;;12.10;2.40;;;;;;;;;;5097183;28;20292;-78
2022/10/06 07:14:00;;;;;;;11.07;2.37;;;;;;;;;;5082401;28;20256;-79
2022/10/06 07:25:10;;;;;;;9.43;2.30;;;;;;;;;;5076546;28;20210;-77
2022/10/06 07:27:40;;;;;;;7.97;1.83;;;;;;;;;;5084997;28;20198;-78
2022/10/06 07:30:10;;;;;;;8.13;2.30;;;;;;;;;;5096213;28;20204;-78
2022/10/06 07:32:39;;;;;;;11.60;2.43;;;;;;;;;;5096783;28;20631;-78
2022/10/06 07:35:08;;;;;;;7.80;2.10;;;;;;;;;;5097064;28;20244;-78
2022/10/06 07:37:39;;;;;;;5.33;2.10;;;;;;;;;;5096747;28;20233;-78
2022/10/06 07:40:08;;;;;;;7.23;2.40;;;;;;;;;;5095204;28;20194;-77
2022/10/06 07:42:47;;;;;;;10.17;2.10;;;;;;;;;;5075930;28;20209;-78
2022/10/06 07:48:04;;;;;;;9.47;2.60;;;;;;;;;;5086075;28;20210;-78
2022/10/06 07:50:32;;;;;;;9.13;2.57;;;;;;;;;;5096662;28;20251;-78
2022/10/06 07:53:06;;;;;;;9.97;2.20;;;;;;;;;;5080941;28;20706;-78
2022/10/06 07:55:35;;;;;;;5.07;1.83;;;;;;;;;;5075986;28;20261;-79
2022/10/06 07:58:03;;;;;;;10.27;2.47;;;;;;;;;;5076352;28;20198;-78
2022/10/06 08:00:32;;;;;;;8.50;2.17;;;;;;;;;;5075818;28;20206;-78
2022/10/06 08:03:05;;;;;;;9.83;2.50;;;;;;;;;;5075903;28;20250;-78
2022/10/06 08:05:34;;;;;;;13.63;2.73;;;;;;;;;;5080479;28;20206;-78
2022/10/06 08:08:04;;;;;;;7.97;2.10;;;;;;;;;;5096285;28;20648;-79
2022/10/06 08:10:32;;;;;;;9.93;2.53;;;;;;;;;;5092688;28;20202;-77
2022/10/06 08:13:03;;;;;;;12.13;2.40;;;;;;;;;;5091234;28;20237;-78
2022/10/06 08:15:32;;;;;;;10.83;2.60;;;;;;;;;;5095927;28;20218;-78
2022/10/06 08:18:01;;;;;;;10.60;2.10;;;;;;;;;;5079216;28;20586;-77
2022/10/06 08:20:30;;;;;;;9.03;2.60;;;;;;;;;;5083143;28;20723;-78
2022/10/06 08:22:58;;;;;;;10.67;2.37;;;;;;;;;;5093797;28;20248;-78
2022/10/06 08:25:28;;;;;;;9.33;2.27;;;;;;;;;;5095630;28;20244;-78
2022/10/06 08:27:56;;;;;;;10.77;2.10;;;;;;;;;;5095724;28;20678;-78
2022/10/06 08:30:25;;;;;;;10.73;2.10;;;;;;;;;;5095894;28;20659;-78
2022/10/06 08:32:54;;;;;;;6.10;1.87;;;;;;;;;;5087721;28;20214;-78
2022/10/06 08:35:22;;;;;;;7.30;2.40;;;;;;;;;;5075558;28;20238;-79
2022/10/06 08:37:51;;;;;;;14.53;2.70;;;;;;;;;;5081526;28;20623;-78
2022/10/06 08:40:19;;;;;;;11.90;2.47;;;;;;;;;;5095436;28;20764;-78
2022/10/06 08:42:51;;;;;;;8.77;2.30;;;;;;;;;;5093048;28;20208;-78
2022/10/06 08:45:22;;;;;;;9.73;2.37;;;;;;;;;;5095658;28;20577;-78
2022/10/06 08:47:55;;;;;;;6.83;2.27;;;;;;;;;;5094204;28;20281;-78
2022/10/06 08:50:26;;;;;;;9.00;2.30;;;;;;;;;;5095201;28;20238;-78
2022/10/06 08:53:01;;;;;;;9.70;2.53;;;;;;;;;;5074156;28;20251;-78
2022/10/06 08:55:38;;;;;;;7.17;2.33;;;;;;;;;;5074774;28;20726;-78
2022/10/06 08:58:27;;;;;;;6.67;2.30;;;;;;;;;;5074264;28;20225;-79
2022/10/06 09:00:56;;;;;;;7.93;2.13;;;;;;;;;;5075110;28;20218;-78
2022/10/06 09:03:28;;;;;;;9.10;2.27;;;;;;;;;;5075384;28;20621;-78
2022/10/06 09:05:59;;;;;;;10.60;2.57;;;;;;;;;;5075166;28;20668;-77
2022/10/06 09:08:46;;;;;;;11.97;2.30;;;;;;;;;;5074912;28;20199;-78
2022/10/06 09:11:21;;;;;;;8.80;2.30;;;;;;;;;;5074899;28;20198;-77
2022/10/06 09:13:53;;;;;;;8.03;2.47;;;;;;;;;;5074918;28;20314;-78
2022/10/06 09:16:27;;;;;;;7.90;1.77;;;;;;;;;;5075024;28;20735;-78
2022/10/06 09:18:58;;;;;;;8.43;2.10;;;;;;;;;;5074443;28;20202;-78
2022/10/06 09:21:44;;;;;;;8.50;2.30;;;;;;;;;;5074600;28;20282;-77
2022/10/06 09:24:15;;;;;;;6.93;1.87;;;;;;;;;;5074309;28;20226;-77
2022/10/06 09:26:45;;;;;;;9.47;2.33;;;;;;;;;;5074597;28;20202;-77
2022/10/06 09:29:15;;;;;;;6.43;2.03;;;;;;;;;;5074257;28;20238;-77
2022/10/06 09:31:49;;;;;;;6.40;1.80;;;;;;;;;;5074894;28;20632;-78
2022/10/06 09:34:24;;;;;;;8.37;2.03;;;;;;;;;;5086939;28;20275;-78
2022/10/06 09:36:59;;;;;;;7.37;2.20;;;;;;;;;;5073982;28;20226;-78
2022/10/06 09:39:32;;;;;;;8.25;2.00;;;;;;;;;;5074492;28;20213;-77
2022/10/06 09:42:05;;;;;;;5.18;1.88;;;;;;;;;;5073898;28;20294;-78
2022/10/06 09:44:43;;;;;;;7.80;2.15;;;;;;;;;;5074315;28;20254;-78
2022/10/06 09:47:23;;;;;;;6.85;1.90;;;;;;;;;;5073960;28;20285;-77
2022/10/06 09:50:13;;;;;;;8.43;2.05;;;;;;;;;;5073455;28;20234;-78
2022/10/06 09:52:41;;;;;;;6.25;1.90;;;;;;;;;;5073632;28;20202;-78
2022/10/06 09:55:11;;;;;;;5.03;1.80;;;;;;;;;;5074402;28;20198;-77
2022/10/06 09:57:48;;;;;;;7.57;1.77;;;;;;;;;;5071760;28;20350;-77
2022/10/06 10:00:27;;;;;;;7.95;2.45;;;;;;;;;;5093882;28;20639;-78
2022/10/06 10:03:01;;;;;;;6.03;1.90;;;;;;;;;;5090883;28;20245;-78
2022/10/06 10:05:31;;;;;;;8.52;1.67;;;;;;;;;;5093753;28;20193;-78
2022/10/06 10:08:03;;;;;;;5.07;1.60;;;;;;;;;;5092807;28;20615;-77
2022/10/06 10:10:35;;;;;;;7.57;1.92;;;;;;;;;;5075591;28;20301;-78
2022/10/06 10:13:05;;;;;;;7.32;1.80;;;;;;;;;;5073849;28;20230;-77
2022/10/06 10:15:37;;;;;;;6.53;1.58;;;;;;;;;;5073795;28;20300;-77
2022/10/06 10:18:12;;;;;;;7.07;1.83;;;;;;;;;;5085889;28;20659;-77
2022/10/06 10:20:50;;;;;;;6.40;1.70;;;;;;;;;;5094114;28;20221;-78
2022/10/06 10:23:22;;;;;;;6.00;1.70;;;;;;;;;;5077590;28;20704;-79
2022/10/06 10:26:03;;;;;;;5.60;1.60;;;;;;;;;;5076417;28;20198;-78
2022/10/06 10:28:57;;;;;;;5.78;1.73;;;;;;;;;;5073534;28;20214;-78
2022/10/06 10:31:31;;;;;;;5.57;1.65;;;;;;;;;;5058449;28;20202;-78
2022/10/06 10:34:06;;;;;;;3.83;1.67;;;;;;;;;;5073464;28;20710;-78
2022/10/06 10:36:54;;;;;;;9.20;2.00;;;;;;;;;;5073383;28;20600;-78
2022/10/06 10:39:28;;;;;;;6.13;1.75;;;;;;;;;;5073813;28;20222;-78
2022/10/06 10:41:57;;;;;;;5.00;1.83;;;;;;;;;;5087925;28;20233;-77
2022/10/06 10:44:28;;;;;;;5.18;1.77;;;;;;;;;;5093715;28;20652;-78
2022/10/06 10:47:01;;;;;;;7.82;2.00;;;;;;;;;;5077896;28;20687;-78
2022/10/06 10:49:32;;;;;;;5.68;1.50;;;;;;;;;;5073681;28;20676;-79
2022/10/06 10:52:02;;;;;;;5.63;1.60;;;;;;;;;;5074119;28;20198;-78
2022/10/06 10:54:35;;;;;;;6.72;1.73;;;;;;;;;;5091729;28;20252;-78
2022/10/06 10:57:04;;;;;;;4.85;1.67;;;;;;;;;;5093013;28;20296;-77
2022/10/06 10:59:36;;;;;;;6.75;2.03;;;;;;;;;;5093531;28;20202;-77
2022/10/06 11:02:12;;;;;;;5.50;1.70;;;;;;;;;;5084499;28;20259;-78
2022/10/06 11:04:45;;;;;;;5.07;1.67;;;;;;;;;;5073261;28;20312;-78
2022/10/06 11:07:20;;;;;;;4.00;1.50;;;;;;;;;;5086004;28;20233;-78
2022/10/06 11:09:53;;;;;;;4.82;1.50;;;;;;;;;;5093558;28;20247;-78
2022/10/06 11:12:26;;;;;;;4.55;1.63;;;;;;;;;;5093258;28;20234;-77
2022/10/06 11:14:58;;;;;;;4.05;1.60;;;;;;;;;;5093044;28;20257;-78
2022/10/06 11:17:38;;;;;;;6.82;1.88;;;;;;;;;;5089842;28;20308;-78
2022/10/06 11:20:18;;;;;;;5.00;1.73;;;;;;;;;;5085944;28;20206;-78
2022/10/06 11:22:50;;;;;;;5.05;1.75;;;;;;;;;;5072751;28;20293;-78
2022/10/06 11:25:22;;;;;;;7.47;1.60;;;;;;;;;;5073057;28;20230;-78
2022/10/06 11:27:57;;;;;;;5.43;1.90;;;;;;;;;;5072793;28;20273;-78
2022/10/06 11:30:26;;;;;;;7.07;1.80;;;;;;;;;;5072786;28;20260;-78
2022/10/06 11:33:00;;;;;;;6.35;1.90;;;;;;;;;;5092179;28;20241;-78
2022/10/06 11:35:35;;;;;;;5.85;1.80;;;;;;;;;;5080828;28;20240;-78
2022/10/06 11:38:06;;;;;;;7.88;1.75;;;;;;;;;;5072896;28;20636;-78
2022/10/06 11:40:39;;;;;;;5.60;1.38;;;;;;;;;;5072665;28;20277;-79
2022/10/06 11:43:13;;;;;;;8.65;1.70;;;;;;;;;;5072517;28;20309;-77
2022/10/06 11:45:46;;;;;;;6.38;1.48;;;;;;;;;;5072510;28;20276;-78
2022/10/06 11:48:21;;;;;;;4.13;1.70;;;;;;;;;;5087470;28;20601;-78
2022/10/06 11:50:54;;;;;;;8.90;2.00;;;;;;;;;;5072720;28;20210;-78
2022/10/06 11:53:28;;;;;;;5.82;1.60;;;;;;;;;;5072688;28;20252;-79
2022/10/06 11:56:15;;;;;;;6.25;1.58;;;;;;;;;;5076104;28;20245;-79
2022/10/06 11:59:02;;;;;;;6.35;1.50;;;;;;;;;;5076172;28;20202;-78
2022/10/06 12:01:49;;;;;;;6.32;1.70;;;;;;;;;;5076260;28;20241;-78
2022/10/06 12:04:18;;;;;;;5.95;1.92;;;;;;;;;;5085642;28;20231;-78
2022/10/06 12:06:54;;;;;;;4.38;1.65;;;;;;;;;;5096509;28;20194;-78
2022/10/06 12:09:46;;;;;;;5.65;1.70;;;;;;;;;;5086838;28;20275;-78
2022/10/06 12:12:38;;;;;;;8.30;1.92;;;;;;;;;;5076179;28;20202;-78
2022/10/06 12:15:13;;;;;;;6.00;1.73;;;;;;;;;;5075774;28;20223;-77
2022/10/06 12:18:05;;;;;;;5.93;1.60;;;;;;;;;;5075420;28;20234;-78
2022/10/06 12:20:51;;;;;;;7.13;1.83;;;;;;;;;;5074837;28;20237;-77
2022/10/06 12:23:28;;;;;;;5.78;1.60;;;;;;;;;;5075506;28;20742;-77
2022/10/06 12:26:00;;;;;;;5.30;1.55;;;;;;;;;;5095533;28;20296;-77
2022/10/06 12:28:32;;;;;;;4.55;1.60;;;;;;;;;;5095888;28;20205;-78
2022/10/06 12:31:17;;;;;;;3.15;1.42;;;;;;;;;;5095676;28;20208;-78
2022/10/06 12:33:47;;;;;;;4.90;1.73;;;;;;;;;;5095466;28;20221;-78
2022/10/06 12:36:18;;;;;;;6.80;1.95;;;;;;;;;;5093690;28;20731;-78
2022/10/06 12:41:57;;;;;;;5.07;1.42;;;;;;;;;;5111373;27;20538;-77
2022/10/06 12:44:27;;;;;;;5.20;1.83;;;;;;;;;;5111626;28;20332;-78
2022/10/06 12:46:56;;;;;;;5.57;1.58;;;;;;;;;;5103689;28;20253;-77
2022/10/06 12:49:33;;;;;;;4.50;1.42;;;;;;;;;;5093050;28;20239;-77
2022/10/06 12:52:07;;;;;;;6.93;1.88;;;;;;;;;;5090683;28;20251;-77
2022/10/06 12:54:39;;;;;;;5.97;2.13;;;;;;;;;;5090169;28;20217;-78
2022/10/06 12:57:18;;;;;;;5.70;1.70;;;;;;;;;;5090646;28;20255;-77
2022/10/06 12:59:48;;;;;;;4.65;1.48;;;;;;;;;;5090827;28;20222;-77
2022/10/06 13:02:19;;;;;;;4.45;1.40;;;;;;;;;;5090236;28;20206;-77
2022/10/06 13:04:50;;;;;;;4.72;1.42;;;;;;;;;;5090119;28;20392;-78
2022/10/06 13:07:20;;;;;;;5.65;1.52;;;;;;;;;;5090068;28;20586;-78
2022/10/06 13:09:50;;;;;;;4.43;1.42;;;;;;;;;;5090714;28;20710;-77
2022/10/06 13:12:27;;;;;;;3.85;1.58;;;;;;;;;;5090514;28;20293;-77
2022/10/06 13:15:20;;;;;;;4.57;1.60;;;;;;;;;;5089850;28;20218;-78
2022/10/06 13:17:50;;;;;;;5.07;1.40;;;;;;;;;;5095385;28;20209;-78
2022/10/06 13:20:21;;;;;;;7.10;1.90;;;;;;;;;;5110633;28;20777;-77
2022/10/06 13:22:56;;;;;;;3.70;1.27;;;;;;;;;;5110643;28;20254;-78
2022/10/06 13:25:24;;;;;;;7.25;1.55;;;;;;;;;;5110177;28;20185;-78
2022/10/06 13:27:54;;;;;;;5.95;1.70;;;;;;;;;;5108602;28;20700;-77
2022/10/06 13:30:23;;;;;;;7.93;1.90;;;;;;;;;;5090223;28;20271;-78
2022/10/06 13:32:53;;;;;;;7.30;1.80;;;;;;;;;;5093249;28;20660;-78
2022/10/06 13:35:23;;;;;;;5.95;1.77;;;;;;;;;;5089864;28;20209;-78
2022/10/06 13:37:52;;;;;;;6.63;1.70;;;;;;;;;;5089625;28;20305;-78
2022/10/06 13:40:30;;;;;;;4.50;1.50;;;;;;;;;;5090482;28;20253;-78
2022/10/06 13:43:17;;;;;;;6.35;2.00;;;;;;;;;;5094683;28;20678;-78
2022/10/06 13:45:47;;;;;;;3.55;1.67;;;;;;;;;;5110697;28;20623;-78
2022/10/06 13:48:17;;;;;;;4.30;1.50;;;;;;;;;;5090777;28;20259;-78
2022/10/06 13:50:47;;;;;;;5.72;1.48;;;;;;;;;;5089646;28;20633;-77
2022/10/06 13:53:24;;;;;;;5.22;1.60;;;;;;;;;;5076577;28;20219;-77
2022/10/06 13:55:53;;;;;;;5.05;1.50;;;;;;;;;;5076265;28;20719;-77
2022/10/06 13:58:26;;;;;;;5.93;1.65;;;;;;;;;;5075600;28;20305;-78
2022/10/06 14:00:56;;;;;;;4.13;1.40;;;;;;;;;;5087143;28;20220;-78
2022/10/06 14:03:27;;;;;;;7.47;1.95;;;;;;;;;;5096261;28;20263;-78
2022/10/06 14:06:06;;;;;;;5.78;1.65;;;;;;;;;;5095147;28;20196;-76
2022/10/06 14:08:36;;;;;;;3.10;1.48;;;;;;;;;;5091371;28;20647;-77
2022/10/06 14:11:06;;;;;;;6.18;1.70;;;;;;;;;;5096108;28;20259;-77
2022/10/06 14:13:42;;;;;;;6.28;1.88;;;;;;;;;;5096183;28;20265;-78
2022/10/06 14:16:18;;;;;;;6.97;1.70;;;;;;;;;;5094602;28;20254;-77
2022/10/06 14:18:53;;;;;;;4.03;1.50;;;;;;;;;;5076136;28;20236;-78
2022/10/06 14:21:32;;;;;;;6.68;1.65;;;;;;;;;;5075993;28;20269;-77
2022/10/06 14:24:00;;;;;;;5.28;1.63;;;;;;;;;;5085271;28;20698;-78
2022/10/06 14:26:37;;;;;;;6.68;1.50;;;;;;;;;;5094759;28;20207;-77
2022/10/06 14:29:07;;;;;;;4.72;1.35;;;;;;;;;;5095782;28;20232;-77
2022/10/06 14:31:35;;;;;;;4.53;1.60;;;;;;;;;;5091155;28;20199;-78
2022/10/06 14:34:04;;;;;;;5.55;1.70;;;;;;;;;;5091816;28;20308;-77
2022/10/06 14:36:34;;;;;;;3.95;1.70;;;;;;;;;;5095892;28;20202;-78
2022/10/06 14:39:03;;;;;;;3.53;1.73;;;;;;;;;;5083386;28;20724;-78
2022/10/06 14:41:32;;;;;;;6.38;1.52;;;;;;;;;;5075343;28;20750;-78
2022/10/06 14:44:01;;;;;;;5.07;1.58;;;;;;;;;;5075577;28;20276;-77
2022/10/06 14:46:31;;;;;;;5.78;1.48;;;;;;;;;;5079476;28;20202;-77
2022/10/06 14:49:02;;;;;;;5.50;1.52;;;;;;;;;;5095896;28;20204;-78
2022/10/06 14:51:31;;;;;;;6.43;1.90;;;;;;;;;;5095624;28;20198;-77
2022/10/06 14:54:04;;;;;;;9.15;1.58;;;;;;;;;;5095701;28;20226;-77
2022/10/06 14:56:34;;;;;;;5.35;1.63;;;;;;;;;;5095893;28;20297;-77
2022/10/06 14:59:04;;;;;;;5.45;1.67;;;;;;;;;;5095665;28;20278;-78
2022/10/06 15:01:36;;;;;;;6.32;1.80;;;;;;;;;;5084681;28;20309;-77
2022/10/06 15:04:05;;;;;;;4.47;1.47;;;;;;;;;;5074376;28;20765;-77
2022/10/06 15:09:20;;;;;;;3.83;1.50;;;;;;;;;;5095395;28;20265;-77
2022/10/06 15:11:48;;;;;;;4.93;1.70;;;;;;;;;;5095556;28;20237;-77
2022/10/06 15:14:16;;;;;;;7.57;1.60;;;;;;;;;;5093421;28;20222;-78
2022/10/06 15:16:46;;;;;;;6.03;1.60;;;;;;;;;;5090174;28;20623;-78
2022/10/06 15:19:15;;;;;;;4.85;1.40;;;;;;;;;;5081959;28;20290;-78
2022/10/06 15:21:44;;;;;;;4.93;1.67;;;;;;;;;;5074424;28;20248;-77
2022/10/06 15:24:14;;;;;;;4.88;1.58;;;;;;;;;;5074612;28;20226;-78